sensor_id;sensor_type;location;lat;lon;timestamp;temperature;humidity
12845;DHT22;68700;48.534;9.196;2023-05-29T00:00:07;11.80;1.00
12845;DHT22;68700;48.534;9.196;2023-05-29T00:03:29;11.70;1.00
12845;DHT22;68700;48.534;9.196;2023-05-29T00:06:53;11.60;1.00
12845;DHT22;68700;48.534;9.196;2023-05-29T00:10:16;11.60;1.00
12845;DHT22;68700;48.534;9.196;2023-05-29T00:13:39;11.50;1.00
12845;DHT22;68700;48.534;9.196;2023-05-29T00:17:01;11.40;1.00
12845;DHT22;68700;48.534;9.196;2023-05-29T00:20:23;11.40;1.00
12845;DHT22;68700;48.534;9.196;2023-05-29T00:23:45;11.40;1.00
12845;DHT22;68700;48.534;9.196;2023-05-29T00:27:07;11.30;1.00
12845;DHT22;68700;48.534;9.196;2023-05-29T00:30:30;11.30;1.00
12845;DHT22;68700;48.534;9.196;2023-05-29T00:33:52;11.20;1.00
12845;DHT22;68700;48.534;9.196;2023-05-29T00:37:14;11.20;1.00
12845;DHT22;68700;48.534;9.196;2023-05-29T00:40:36;11.10;1.00
12845;DHT22;68700;48.534;9.196;2023-05-29T00:43:58;11.10;1.00
12845;DHT22;68700;48.534;9.196;2023-05-29T00:47:21;11.00;1.00
12845;DHT22;68700;48.534;9.196;2023-05-29T00:50:44;11.00;1.00
12845;DHT22;68700;48.534;9.196;2023-05-29T00:54:07;10.90;1.00
12845;DHT22;68700;48.534;9.196;2023-05-29T00:57:29;10.80;1.00
12845;DHT22;68700;48.534;9.196;2023-05-29T01:00:52;10.80;1.00
12845;DHT22;68700;48.534;9.196;2023-05-29T01:04:15;10.80;1.00
12845;DHT22;68700;48.534;9.196;2023-05-29T01:07:38;10.80;1.00
12845;DHT22;68700;48.534;9.196;2023-05-29T01:11:05;10.70;1.00
12845;DHT22;68700;48.534;9.196;2023-05-29T01:14:39;10.70;1.00
12845;DHT22;68700;48.534;9.196;2023-05-29T01:18:10;10.60;1.00
12845;DHT22;68700;48.534;9.196;2023-05-29T01:21:42;10.50;1.00
12845;DHT22;68700;48.534;9.196;2023-05-29T01:25:16;10.50;1.00
12845;DHT22;68700;48.534;9.196;2023-05-29T01:28:44;10.40;1.00
12845;DHT22;68700;48.534;9.196;2023-05-29T01:32:09;10.40;1.00
12845;DHT22;68700;48.534;9.196;2023-05-29T01:35:32;10.40;1.00
12845;DHT22;68700;48.534;9.196;2023-05-29T01:38:56;10.30;1.00
12845;DHT22;68700;48.534;9.196;2023-05-29T01:42:19;10.30;1.00
12845;DHT22;68700;48.534;9.196;2023-05-29T01:45:43;10.20;1.00
12845;DHT22;68700;48.534;9.196;2023-05-29T01:49:05;10.20;1.00
12845;DHT22;68700;48.534;9.196;2023-05-29T01:52:27;10.10;1.00
12845;DHT22;68700;48.534;9.196;2023-05-29T01:55:50;10.00;1.00
12845;DHT22;68700;48.534;9.196;2023-05-29T01:59:13;10.00;1.00
12845;DHT22;68700;48.534;9.196;2023-05-29T02:02:38;10.00;1.00
12845;DHT22;68700;48.534;9.196;2023-05-29T02:06:00;9.90;1.00
12845;DHT22;68700;48.534;9.196;2023-05-29T02:09:22;9.90;1.00
12845;DHT22;68700;48.534;9.196;2023-05-29T02:12:44;9.90;1.00
12845;DHT22;68700;48.534;9.196;2023-05-29T02:16:05;9.80;1.00
12845;DHT22;68700;48.534;9.196;2023-05-29T02:19:29;9.80;1.00
12845;DHT22;68700;48.534;9.196;2023-05-29T02:22:51;9.80;1.00
12845;DHT22;68700;48.534;9.196;2023-05-29T02:26:12;9.80;1.00
12845;DHT22;68700;48.534;9.196;2023-05-29T02:29:35;9.70;1.00
12845;DHT22;68700;48.534;9.196;2023-05-29T02:32:57;9.70;1.00
12845;DHT22;68700;48.534;9.196;2023-05-29T02:36:20;9.60;1.00
12845;DHT22;68700;48.534;9.196;2023-05-29T02:39:42;9.60;1.00
12845;DHT22;68700;48.534;9.196;2023-05-29T02:43:05;9.60;1.00
12845;DHT22;68700;48.534;9.196;2023-05-29T02:46:27;9.50;1.00
12845;DHT22;68700;48.534;9.196;2023-05-29T02:49:49;9.50;1.00
12845;DHT22;68700;48.534;9.196;2023-05-29T02:53:12;9.50;1.00
12845;DHT22;68700;48.534;9.196;2023-05-29T02:56:34;9.50;1.00
12845;DHT22;68700;48.534;9.196;2023-05-29T02:59:56;9.50;1.00
12845;DHT22;68700;48.534;9.196;2023-05-29T03:03:18;9.40;1.00
12845;DHT22;68700;48.534;9.196;2023-05-29T03:06:40;9.40;1.00
12845;DHT22;68700;48.534;9.196;2023-05-29T03:10:04;9.40;1.00
12845;DHT22;68700;48.534;9.196;2023-05-29T03:13:25;9.30;1.00
12845;DHT22;68700;48.534;9.196;2023-05-29T03:16:48;9.30;1.00
12845;DHT22;68700;48.534;9.196;2023-05-29T03:20:11;9.20;1.00
12845;DHT22;68700;48.534;9.196;2023-05-29T03:23:34;9.20;1.00
12845;DHT22;68700;48.534;9.196;2023-05-29T03:26:57;9.20;1.00
12845;DHT22;68700;48.534;9.196;2023-05-29T03:30:19;9.10;1.00
12845;DHT22;68700;48.534;9.196;2023-05-29T03:33:41;9.10;1.00
12845;DHT22;68700;48.534;9.196;2023-05-29T03:37:03;9.10;1.00
12845;DHT22;68700;48.534;9.196;2023-05-29T03:40:25;9.10;1.00
12845;DHT22;68700;48.534;9.196;2023-05-29T03:43:48;9.10;1.00
12845;DHT22;68700;48.534;9.196;2023-05-29T03:47:10;9.20;1.00
12845;DHT22;68700;48.534;9.196;2023-05-29T03:50:31;9.20;1.00
12845;DHT22;68700;48.534;9.196;2023-05-29T03:53:53;9.20;1.00
12845;DHT22;68700;48.534;9.196;2023-05-29T03:57:15;9.20;1.00
12845;DHT22;68700;48.534;9.196;2023-05-29T04:00:38;9.20;1.00
12845;DHT22;68700;48.534;9.196;2023-05-29T04:04:00;9.20;1.00
12845;DHT22;68700;48.534;9.196;2023-05-29T04:07:22;9.20;1.00
12845;DHT22;68700;48.534;9.196;2023-05-29T04:10:44;9.20;1.00
12845;DHT22;68700;48.534;9.196;2023-05-29T04:14:07;9.30;1.00
12845;DHT22;68700;48.534;9.196;2023-05-29T04:17:30;9.30;1.00
12845;DHT22;68700;48.534;9.196;2023-05-29T04:20:52;9.30;1.00
12845;DHT22;68700;48.534;9.196;2023-05-29T04:24:14;9.40;1.00
12845;DHT22;68700;48.534;9.196;2023-05-29T04:27:35;9.50;1.00
12845;DHT22;68700;48.534;9.196;2023-05-29T04:30:57;9.50;1.00
12845;DHT22;68700;48.534;9.196;2023-05-29T04:34:21;9.60;1.00
12845;DHT22;68700;48.534;9.196;2023-05-29T04:37:43;9.70;1.00
12845;DHT22;68700;48.534;9.196;2023-05-29T04:41:06;9.80;1.00
12845;DHT22;68700;48.534;9.196;2023-05-29T04:44:28;9.90;1.00
12845;DHT22;68700;48.534;9.196;2023-05-29T04:47:52;10.00;1.00
12845;DHT22;68700;48.534;9.196;2023-05-29T04:51:17;10.10;1.00
12845;DHT22;68700;48.534;9.196;2023-05-29T04:54:40;10.20;1.00
12845;DHT22;68700;48.534;9.196;2023-05-29T04:58:02;10.30;1.00
12845;DHT22;68700;48.534;9.196;2023-05-29T05:01:24;10.40;1.00
12845;DHT22;68700;48.534;9.196;2023-05-29T05:04:46;10.50;1.00
12845;DHT22;68700;48.534;9.196;2023-05-29T05:08:09;10.60;1.00
12845;DHT22;68700;48.534;9.196;2023-05-29T05:11:32;10.80;1.00
12845;DHT22;68700;48.534;9.196;2023-05-29T05:14:54;10.90;1.00
12845;DHT22;68700;48.534;9.196;2023-05-29T05:18:16;11.00;1.00
12845;DHT22;68700;48.534;9.196;2023-05-29T05:21:38;11.10;1.00
12845;DHT22;68700;48.534;9.196;2023-05-29T05:25:01;11.10;1.00
12845;DHT22;68700;48.534;9.196;2023-05-29T05:28:24;11.30;1.00
12845;DHT22;68700;48.534;9.196;2023-05-29T05:31:46;11.40;1.00
12845;DHT22;68700;48.534;9.196;2023-05-29T05:35:08;11.60;1.00
12845;DHT22;68700;48.534;9.196;2023-05-29T05:38:31;11.80;1.00
12845;DHT22;68700;48.534;9.196;2023-05-29T05:41:55;11.90;1.00
12845;DHT22;68700;48.534;9.196;2023-05-29T05:45:17;12.10;1.00
12845;DHT22;68700;48.534;9.196;2023-05-29T05:48:40;12.20;1.00
12845;DHT22;68700;48.534;9.196;2023-05-29T05:52:02;12.50;1.00
12845;DHT22;68700;48.534;9.196;2023-05-29T05:55:24;12.70;1.00
12845;DHT22;68700;48.534;9.196;2023-05-29T05:58:48;13.00;1.00
12845;DHT22;68700;48.534;9.196;2023-05-29T06:02:10;13.50;1.00
12845;DHT22;68700;48.534;9.196;2023-05-29T06:05:32;13.80;1.00
12845;DHT22;68700;48.534;9.196;2023-05-29T06:08:54;13.70;1.00
12845;DHT22;68700;48.534;9.196;2023-05-29T06:12:17;14.00;1.00
12845;DHT22;68700;48.534;9.196;2023-05-29T06:15:40;14.40;1.00
12845;DHT22;68700;48.534;9.196;2023-05-29T06:19:02;14.70;1.00
12845;DHT22;68700;48.534;9.196;2023-05-29T06:22:24;15.20;1.00
12845;DHT22;68700;48.534;9.196;2023-05-29T06:25:46;15.80;1.00
12845;DHT22;68700;48.534;9.196;2023-05-29T06:29:08;16.50;1.00
12845;DHT22;68700;48.534;9.196;2023-05-29T06:32:31;16.90;1.00
12845;DHT22;68700;48.534;9.196;2023-05-29T06:35:53;17.30;1.00
12845;DHT22;68700;48.534;9.196;2023-05-29T06:39:15;18.00;1.00
12845;DHT22;68700;48.534;9.196;2023-05-29T06:42:38;18.60;1.00
12845;DHT22;68700;48.534;9.196;2023-05-29T06:46:00;19.10;1.00
12845;DHT22;68700;48.534;9.196;2023-05-29T06:49:23;19.50;1.00
12845;DHT22;68700;48.534;9.196;2023-05-29T06:52:45;20.00;1.00
12845;DHT22;68700;48.534;9.196;2023-05-29T06:56:07;20.40;1.00
12845;DHT22;68700;48.534;9.196;2023-05-29T06:59:29;20.60;99.90
12845;DHT22;68700;48.534;9.196;2023-05-29T07:02:51;20.80;99.90
12845;DHT22;68700;48.534;9.196;2023-05-29T07:06:14;21.00;99.90
12845;DHT22;68700;48.534;9.196;2023-05-29T07:09:36;21.10;99.90
12845;DHT22;68700;48.534;9.196;2023-05-29T07:12:59;21.70;99.90
12845;DHT22;68700;48.534;9.196;2023-05-29T07:16:21;21.70;99.90
12845;DHT22;68700;48.534;9.196;2023-05-29T07:19:43;21.80;99.90
12845;DHT22;68700;48.534;9.196;2023-05-29T07:23:07;21.70;99.90
12845;DHT22;68700;48.534;9.196;2023-05-29T07:26:29;22.30;99.90
12845;DHT22;68700;48.534;9.196;2023-05-29T07:29:51;23.10;99.90
12845;DHT22;68700;48.534;9.196;2023-05-29T07:33:13;23.40;99.90
12845;DHT22;68700;48.534;9.196;2023-05-29T07:36:35;23.50;99.90
12845;DHT22;68700;48.534;9.196;2023-05-29T07:39:59;24.30;99.90
12845;DHT22;68700;48.534;9.196;2023-05-29T07:43:20;24.60;99.90
12845;DHT22;68700;48.534;9.196;2023-05-29T07:46:42;24.70;99.90
12845;DHT22;68700;48.534;9.196;2023-05-29T07:50:05;25.20;99.90
12845;DHT22;68700;48.534;9.196;2023-05-29T07:53:27;26.20;99.90
12845;DHT22;68700;48.534;9.196;2023-05-29T07:56:50;26.70;99.90
12845;DHT22;68700;48.534;9.196;2023-05-29T08:00:12;27.30;99.90
12845;DHT22;68700;48.534;9.196;2023-05-29T08:03:35;26.40;99.90
12845;DHT22;68700;48.534;9.196;2023-05-29T08:06:57;25.60;99.90
12845;DHT22;68700;48.534;9.196;2023-05-29T08:10:19;25.90;99.90
12845;DHT22;68700;48.534;9.196;2023-05-29T08:13:42;27.60;99.90
12845;DHT22;68700;48.534;9.196;2023-05-29T08:17:04;27.80;99.90
12845;DHT22;68700;48.534;9.196;2023-05-29T08:20:26;28.10;99.90
12845;DHT22;68700;48.534;9.196;2023-05-29T08:23:48;27.90;99.90
12845;DHT22;68700;48.534;9.196;2023-05-29T08:27:10;28.00;99.90
12845;DHT22;68700;48.534;9.196;2023-05-29T08:30:33;28.30;99.90
12845;DHT22;68700;48.534;9.196;2023-05-29T08:33:55;28.20;99.90
12845;DHT22;68700;48.534;9.196;2023-05-29T08:37:17;28.80;99.90
12845;DHT22;68700;48.534;9.196;2023-05-29T08:40:40;29.40;99.90
12845;DHT22;68700;48.534;9.196;2023-05-29T08:44:03;29.50;99.90
12845;DHT22;68700;48.534;9.196;2023-05-29T08:47:32;29.70;99.90
12845;DHT22;68700;48.534;9.196;2023-05-29T08:50:55;29.70;99.90
12845;DHT22;68700;48.534;9.196;2023-05-29T08:54:18;29.50;99.90
12845;DHT22;68700;48.534;9.196;2023-05-29T08:57:42;29.50;99.90
12845;DHT22;68700;48.534;9.196;2023-05-29T09:01:04;29.40;99.90
12845;DHT22;68700;48.534;9.196;2023-05-29T09:04:29;28.90;99.90
12845;DHT22;68700;48.534;9.196;2023-05-29T09:07:51;30.00;99.90
12845;DHT22;68700;48.534;9.196;2023-05-29T09:11:14;30.40;99.90
12845;DHT22;68700;48.534;9.196;2023-05-29T09:14:36;29.70;99.90
12845;DHT22;68700;48.534;9.196;2023-05-29T09:17:59;29.30;99.90
12845;DHT22;68700;48.534;9.196;2023-05-29T09:21:27;30.20;99.90
12845;DHT22;68700;48.534;9.196;2023-05-29T09:24:50;30.70;99.90
12845;DHT22;68700;48.534;9.196;2023-05-29T09:28:12;30.90;99.90
12845;DHT22;68700;48.534;9.196;2023-05-29T09:31:36;31.20;99.90
12845;DHT22;68700;48.534;9.196;2023-05-29T09:35:07;31.00;99.90
12845;DHT22;68700;48.534;9.196;2023-05-29T09:38:31;31.40;99.90
12845;DHT22;68700;48.534;9.196;2023-05-29T09:41:53;31.30;99.90
12845;DHT22;68700;48.534;9.196;2023-05-29T09:45:17;30.90;99.90
12845;DHT22;68700;48.534;9.196;2023-05-29T09:48:39;30.60;99.90
12845;DHT22;68700;48.534;9.196;2023-05-29T09:52:01;31.10;99.90
12845;DHT22;68700;48.534;9.196;2023-05-29T09:55:25;31.10;99.90
12845;DHT22;68700;48.534;9.196;2023-05-29T09:58:47;31.00;99.90
12845;DHT22;68700;48.534;9.196;2023-05-29T10:02:10;31.90;99.90
12845;DHT22;68700;48.534;9.196;2023-05-29T10:05:32;31.20;99.90
12845;DHT22;68700;48.534;9.196;2023-05-29T10:08:54;32.30;99.90
12845;DHT22;68700;48.534;9.196;2023-05-29T10:12:20;31.50;99.90
12845;DHT22;68700;48.534;9.196;2023-05-29T10:15:44;31.80;99.90
12845;DHT22;68700;48.534;9.196;2023-05-29T10:19:06;31.10;99.90
12845;DHT22;68700;48.534;9.196;2023-05-29T10:22:32;31.40;99.90
12845;DHT22;68700;48.534;9.196;2023-05-29T10:25:59;31.00;99.90
12845;DHT22;68700;48.534;9.196;2023-05-29T10:29:29;31.20;99.90
12845;DHT22;68700;48.534;9.196;2023-05-29T10:33:04;31.50;99.90
12845;DHT22;68700;48.534;9.196;2023-05-29T10:36:34;32.20;99.90
12845;DHT22;68700;48.534;9.196;2023-05-29T10:40:04;33.10;99.90
12845;DHT22;68700;48.534;9.196;2023-05-29T10:43:30;32.60;99.90
12845;DHT22;68700;48.534;9.196;2023-05-29T10:47:06;32.30;99.90
12845;DHT22;68700;48.534;9.196;2023-05-29T10:50:35;32.60;99.90
12845;DHT22;68700;48.534;9.196;2023-05-29T10:53:58;32.70;99.90
12845;DHT22;68700;48.534;9.196;2023-05-29T10:57:24;33.40;99.90
12845;DHT22;68700;48.534;9.196;2023-05-29T11:00:47;33.40;99.90
12845;DHT22;68700;48.534;9.196;2023-05-29T11:04:31;33.40;99.90
12845;DHT22;68700;48.534;9.196;2023-05-29T11:07:59;33.60;99.90
12845;DHT22;68700;48.534;9.196;2023-05-29T11:11:31;33.60;99.90
12845;DHT22;68700;48.534;9.196;2023-05-29T11:14:55;32.60;99.90
12845;DHT22;68700;48.534;9.196;2023-05-29T11:18:20;33.40;99.90
12845;DHT22;68700;48.534;9.196;2023-05-29T11:21:53;33.30;99.90
12845;DHT22;68700;48.534;9.196;2023-05-29T11:25:19;33.20;99.90
12845;DHT22;68700;48.534;9.196;2023-05-29T11:28:42;32.80;99.90
12845;DHT22;68700;48.534;9.196;2023-05-29T11:32:05;32.60;99.90
12845;DHT22;68700;48.534;9.196;2023-05-29T11:35:29;32.40;99.90
12845;DHT22;68700;48.534;9.196;2023-05-29T11:38:53;32.20;99.90
12845;DHT22;68700;48.534;9.196;2023-05-29T11:42:15;33.00;99.90
12845;DHT22;68700;48.534;9.196;2023-05-29T11:45:37;33.00;99.90
12845;DHT22;68700;48.534;9.196;2023-05-29T11:49:00;32.90;99.90
12845;DHT22;68700;48.534;9.196;2023-05-29T11:52:21;32.60;99.90
12845;DHT22;68700;48.534;9.196;2023-05-29T11:55:45;32.00;99.90
12845;DHT22;68700;48.534;9.196;2023-05-29T11:59:11;32.80;99.90
12845;DHT22;68700;48.534;9.196;2023-05-29T12:02:33;33.50;99.90
12845;DHT22;68700;48.534;9.196;2023-05-29T12:05:55;34.10;99.90
12845;DHT22;68700;48.534;9.196;2023-05-29T12:09:24;34.20;99.90
12845;DHT22;68700;48.534;9.196;2023-05-29T12:12:51;34.10;99.90
12845;DHT22;68700;48.534;9.196;2023-05-29T12:16:13;34.10;99.90
12845;DHT22;68700;48.534;9.196;2023-05-29T12:19:35;33.20;99.90
12845;DHT22;68700;48.534;9.196;2023-05-29T12:22:59;32.90;99.90
12845;DHT22;68700;48.534;9.196;2023-05-29T12:26:23;33.50;99.90
12845;DHT22;68700;48.534;9.196;2023-05-29T12:29:47;33.30;99.90
12845;DHT22;68700;48.534;9.196;2023-05-29T12:33:09;33.40;99.90
12845;DHT22;68700;48.534;9.196;2023-05-29T12:36:31;33.20;99.90
12845;DHT22;68700;48.534;9.196;2023-05-29T12:40:09;32.60;99.90
12845;DHT22;68700;48.534;9.196;2023-05-29T12:43:32;32.50;99.90
12845;DHT22;68700;48.534;9.196;2023-05-29T12:46:56;33.10;99.90
12845;DHT22;68700;48.534;9.196;2023-05-29T12:50:23;32.70;99.90
12845;DHT22;68700;48.534;9.196;2023-05-29T12:53:45;32.80;99.90
12845;DHT22;68700;48.534;9.196;2023-05-29T12:57:07;33.10;99.90
12845;DHT22;68700;48.534;9.196;2023-05-29T13:00:29;33.20;99.90
12845;DHT22;68700;48.534;9.196;2023-05-29T13:03:52;33.10;99.90
12845;DHT22;68700;48.534;9.196;2023-05-29T13:07:14;33.10;99.90
12845;DHT22;68700;48.534;9.196;2023-05-29T13:10:36;33.20;99.90
12845;DHT22;68700;48.534;9.196;2023-05-29T13:13:58;32.90;99.90
12845;DHT22;68700;48.534;9.196;2023-05-29T13:17:20;32.40;99.90
12845;DHT22;68700;48.534;9.196;2023-05-29T13:20:43;32.60;99.90
12845;DHT22;68700;48.534;9.196;2023-05-29T13:24:05;33.00;99.90
12845;DHT22;68700;48.534;9.196;2023-05-29T13:27:27;32.30;99.90
12845;DHT22;68700;48.534;9.196;2023-05-29T13:30:49;33.00;99.90
12845;DHT22;68700;48.534;9.196;2023-05-29T13:34:11;32.50;99.90
12845;DHT22;68700;48.534;9.196;2023-05-29T13:37:35;32.00;99.90
12845;DHT22;68700;48.534;9.196;2023-05-29T13:40:57;32.40;99.90
12845;DHT22;68700;48.534;9.196;2023-05-29T13:44:19;32.80;99.90
12845;DHT22;68700;48.534;9.196;2023-05-29T13:47:41;32.50;99.90
12845;DHT22;68700;48.534;9.196;2023-05-29T13:51:02;32.50;99.90
12845;DHT22;68700;48.534;9.196;2023-05-29T13:54:26;32.00;99.90
12845;DHT22;68700;48.534;9.196;2023-05-29T13:57:50;32.40;99.90
12845;DHT22;68700;48.534;9.196;2023-05-29T14:01:12;32.30;99.90
12845;DHT22;68700;48.534;9.196;2023-05-29T14:04:35;32.20;99.90
12845;DHT22;68700;48.534;9.196;2023-05-29T14:07:59;31.90;99.90
12845;DHT22;68700;48.534;9.196;2023-05-29T14:11:22;32.30;99.90
12845;DHT22;68700;48.534;9.196;2023-05-29T14:14:44;32.70;99.90
12845;DHT22;68700;48.534;9.196;2023-05-29T14:18:06;33.20;99.90
12845;DHT22;68700;48.534;9.196;2023-05-29T14:21:28;32.80;99.90
12845;DHT22;68700;48.534;9.196;2023-05-29T14:24:51;32.50;99.90
12845;DHT22;68700;48.534;9.196;2023-05-29T14:28:14;31.40;99.90
12845;DHT22;68700;48.534;9.196;2023-05-29T14:31:36;30.90;99.90
12845;DHT22;68700;48.534;9.196;2023-05-29T14:34:57;31.60;99.90
12845;DHT22;68700;48.534;9.196;2023-05-29T14:38:20;31.60;99.90
12845;DHT22;68700;48.534;9.196;2023-05-29T14:41:42;31.30;99.90
12845;DHT22;68700;48.534;9.196;2023-05-29T14:45:06;32.00;99.90
12845;DHT22;68700;48.534;9.196;2023-05-29T14:48:29;31.70;99.90
12845;DHT22;68700;48.534;9.196;2023-05-29T14:51:51;31.60;99.90
12845;DHT22;68700;48.534;9.196;2023-05-29T14:55:13;31.70;99.90
12845;DHT22;68700;48.534;9.196;2023-05-29T14:58:36;31.80;99.90
12845;DHT22;68700;48.534;9.196;2023-05-29T15:01:59;31.70;99.90
12845;DHT22;68700;48.534;9.196;2023-05-29T15:05:21;32.10;99.90
12845;DHT22;68700;48.534;9.196;2023-05-29T15:08:43;32.30;99.90
12845;DHT22;68700;48.534;9.196;2023-05-29T15:12:06;31.40;99.90
12845;DHT22;68700;48.534;9.196;2023-05-29T15:15:28;30.30;99.90
12845;DHT22;68700;48.534;9.196;2023-05-29T15:18:52;30.60;99.90
12845;DHT22;68700;48.534;9.196;2023-05-29T15:22:13;31.00;99.90
12845;DHT22;68700;48.534;9.196;2023-05-29T15:25:35;31.00;99.90
12845;DHT22;68700;48.534;9.196;2023-05-29T15:28:57;31.40;99.90
12845;DHT22;68700;48.534;9.196;2023-05-29T15:32:19;30.30;99.90
12845;DHT22;68700;48.534;9.196;2023-05-29T15:35:42;30.60;99.90
12845;DHT22;68700;48.534;9.196;2023-05-29T15:39:06;31.00;99.90
12845;DHT22;68700;48.534;9.196;2023-05-29T15:42:28;30.80;99.90
12845;DHT22;68700;48.534;9.196;2023-05-29T15:45:50;30.50;99.90
12845;DHT22;68700;48.534;9.196;2023-05-29T15:49:12;30.10;99.90
12845;DHT22;68700;48.534;9.196;2023-05-29T15:52:35;29.90;99.90
12845;DHT22;68700;48.534;9.196;2023-05-29T15:55:57;30.20;99.90
12845;DHT22;68700;48.534;9.196;2023-05-29T15:59:19;29.80;99.90
12845;DHT22;68700;48.534;9.196;2023-05-29T16:02:41;30.00;99.90
12845;DHT22;68700;48.534;9.196;2023-05-29T16:06:03;29.80;99.90
12845;DHT22;68700;48.534;9.196;2023-05-29T16:09:27;29.90;99.90
12845;DHT22;68700;48.534;9.196;2023-05-29T16:12:49;29.70;99.90
12845;DHT22;68700;48.534;9.196;2023-05-29T16:16:11;29.40;99.90
12845;DHT22;68700;48.534;9.196;2023-05-29T16:19:33;29.40;99.90
12845;DHT22;68700;48.534;9.196;2023-05-29T16:22:55;29.10;99.90
12845;DHT22;68700;48.534;9.196;2023-05-29T16:26:18;28.80;99.90
12845;DHT22;68700;48.534;9.196;2023-05-29T16:29:40;28.40;99.90
12845;DHT22;68700;48.534;9.196;2023-05-29T16:33:02;28.30;99.90
12845;DHT22;68700;48.534;9.196;2023-05-29T16:36:24;28.60;99.90
12845;DHT22;68700;48.534;9.196;2023-05-29T16:39:46;28.20;99.90
12845;DHT22;68700;48.534;9.196;2023-05-29T16:43:09;28.40;99.90
12845;DHT22;68700;48.534;9.196;2023-05-29T16:46:31;27.90;99.90
12845;DHT22;68700;48.534;9.196;2023-05-29T16:49:53;27.70;99.90
12845;DHT22;68700;48.534;9.196;2023-05-29T16:53:15;27.50;99.90
12845;DHT22;68700;48.534;9.196;2023-05-29T16:56:37;27.40;99.90
12845;DHT22;68700;48.534;9.196;2023-05-29T17:00:00;27.40;99.90
12845;DHT22;68700;48.534;9.196;2023-05-29T17:03:22;27.10;99.90
12845;DHT22;68700;48.534;9.196;2023-05-29T17:06:44;26.90;99.90
12845;DHT22;68700;48.534;9.196;2023-05-29T17:10:06;26.50;99.90
12845;DHT22;68700;48.534;9.196;2023-05-29T17:13:30;26.50;99.90
12845;DHT22;68700;48.534;9.196;2023-05-29T17:16:53;26.40;99.90
12845;DHT22;68700;48.534;9.196;2023-05-29T17:20:15;26.00;99.90
12845;DHT22;68700;48.534;9.196;2023-05-29T17:23:37;25.70;99.90
12845;DHT22;68700;48.534;9.196;2023-05-29T17:26:58;25.60;99.90
12845;DHT22;68700;48.534;9.196;2023-05-29T17:30:21;25.50;99.90
12845;DHT22;68700;48.534;9.196;2023-05-29T17:33:44;25.40;99.90
12845;DHT22;68700;48.534;9.196;2023-05-29T17:37:06;25.40;99.90
12845;DHT22;68700;48.534;9.196;2023-05-29T17:40:28;25.20;99.90
12845;DHT22;68700;48.534;9.196;2023-05-29T17:43:50;25.00;99.90
12845;DHT22;68700;48.534;9.196;2023-05-29T17:47:12;25.00;99.90
12845;DHT22;68700;48.534;9.196;2023-05-29T17:50:35;24.80;99.90
12845;DHT22;68700;48.534;9.196;2023-05-29T17:53:57;24.90;99.90
12845;DHT22;68700;48.534;9.196;2023-05-29T17:57:19;24.60;99.90
12845;DHT22;68700;48.534;9.196;2023-05-29T18:00:41;24.60;99.90
12845;DHT22;68700;48.534;9.196;2023-05-29T18:04:03;24.50;99.90
12845;DHT22;68700;48.534;9.196;2023-05-29T18:07:27;24.40;99.90
12845;DHT22;68700;48.534;9.196;2023-05-29T18:10:49;23.90;99.90
12845;DHT22;68700;48.534;9.196;2023-05-29T18:14:11;23.90;99.90
12845;DHT22;68700;48.534;9.196;2023-05-29T18:17:33;23.80;99.90
12845;DHT22;68700;48.534;9.196;2023-05-29T18:20:55;23.50;99.90
12845;DHT22;68700;48.534;9.196;2023-05-29T18:24:18;23.30;99.90
12845;DHT22;68700;48.534;9.196;2023-05-29T18:27:40;23.10;99.90
12845;DHT22;68700;48.534;9.196;2023-05-29T18:31:02;22.90;99.90
12845;DHT22;68700;48.534;9.196;2023-05-29T18:34:24;22.70;99.90
12845;DHT22;68700;48.534;9.196;2023-05-29T18:37:46;22.60;99.90
12845;DHT22;68700;48.534;9.196;2023-05-29T18:41:10;22.50;99.90
12845;DHT22;68700;48.534;9.196;2023-05-29T18:44:32;22.30;99.90
12845;DHT22;68700;48.534;9.196;2023-05-29T18:47:54;22.20;99.90
12845;DHT22;68700;48.534;9.196;2023-05-29T18:51:16;22.00;99.90
12845;DHT22;68700;48.534;9.196;2023-05-29T18:54:38;21.80;99.90
12845;DHT22;68700;48.534;9.196;2023-05-29T18:58:01;21.70;99.90
12845;DHT22;68700;48.534;9.196;2023-05-29T19:01:23;21.50;99.90
12845;DHT22;68700;48.534;9.196;2023-05-29T19:04:45;21.30;99.90
12845;DHT22;68700;48.534;9.196;2023-05-29T19:08:07;21.10;99.90
12845;DHT22;68700;48.534;9.196;2023-05-29T19:11:30;20.90;99.90
12845;DHT22;68700;48.534;9.196;2023-05-29T19:14:53;20.70;99.90
12845;DHT22;68700;48.534;9.196;2023-05-29T19:18:16;20.50;99.90
12845;DHT22;68700;48.534;9.196;2023-05-29T19:21:38;20.40;99.90
12845;DHT22;68700;48.534;9.196;2023-05-29T19:25:00;20.20;99.90
12845;DHT22;68700;48.534;9.196;2023-05-29T19:28:22;20.00;99.90
12845;DHT22;68700;48.534;9.196;2023-05-29T19:31:46;19.90;99.90
12845;DHT22;68700;48.534;9.196;2023-05-29T19:35:08;19.70;99.90
12845;DHT22;68700;48.534;9.196;2023-05-29T19:38:31;19.50;99.90
12845;DHT22;68700;48.534;9.196;2023-05-29T19:41:52;19.40;99.90
12845;DHT22;68700;48.534;9.196;2023-05-29T19:45:14;19.20;99.90
12845;DHT22;68700;48.534;9.196;2023-05-29T19:48:39;19.10;99.90
12845;DHT22;68700;48.534;9.196;2023-05-29T19:52:01;19.00;99.90
12845;DHT22;68700;48.534;9.196;2023-05-29T19:55:22;18.80;99.90
12845;DHT22;68700;48.534;9.196;2023-05-29T19:58:45;18.70;99.90
12845;DHT22;68700;48.534;9.196;2023-05-29T20:02:09;18.60;99.90
12845;DHT22;68700;48.534;9.196;2023-05-29T20:05:32;18.50;99.90
12845;DHT22;68700;48.534;9.196;2023-05-29T20:08:54;18.30;99.90
12845;DHT22;68700;48.534;9.196;2023-05-29T20:12:16;18.20;99.90
12845;DHT22;68700;48.534;9.196;2023-05-29T20:15:38;18.10;99.90
12845;DHT22;68700;48.534;9.196;2023-05-29T20:19:00;18.00;99.90
12845;DHT22;68700;48.534;9.196;2023-05-29T20:22:24;18.00;99.90
12845;DHT22;68700;48.534;9.196;2023-05-29T20:25:46;17.90;99.90
12845;DHT22;68700;48.534;9.196;2023-05-29T20:29:08;17.80;99.90
12845;DHT22;68700;48.534;9.196;2023-05-29T20:32:29;17.60;99.90
12845;DHT22;68700;48.534;9.196;2023-05-29T20:35:52;17.60;99.90
12845;DHT22;68700;48.534;9.196;2023-05-29T20:39:15;17.50;99.90
12845;DHT22;68700;48.534;9.196;2023-05-29T20:42:38;17.40;99.90
12845;DHT22;68700;48.534;9.196;2023-05-29T20:46:00;17.30;99.90
12845;DHT22;68700;48.534;9.196;2023-05-29T20:49:23;17.20;99.90
12845;DHT22;68700;48.534;9.196;2023-05-29T20:52:45;17.00;99.90
12845;DHT22;68700;48.534;9.196;2023-05-29T20:56:08;16.90;99.90
12845;DHT22;68700;48.534;9.196;2023-05-29T20:59:31;16.80;99.90
12845;DHT22;68700;48.534;9.196;2023-05-29T21:02:54;16.60;99.90
12845;DHT22;68700;48.534;9.196;2023-05-29T21:06:16;16.50;99.90
12845;DHT22;68700;48.534;9.196;2023-05-29T21:09:38;16.30;1.00
12845;DHT22;68700;48.534;9.196;2023-05-29T21:13:01;16.20;1.00
12845;DHT22;68700;48.534;9.196;2023-05-29T21:16:23;16.10;1.00
12845;DHT22;68700;48.534;9.196;2023-05-29T21:19:45;16.00;1.00
12845;DHT22;68700;48.534;9.196;2023-05-29T21:23:07;15.90;1.00
12845;DHT22;68700;48.534;9.196;2023-05-29T21:26:29;15.90;1.00
12845;DHT22;68700;48.534;9.196;2023-05-29T21:29:52;15.70;1.00